Time;durP1;ratioP1;P1;durP2;ratioP2;P2;SDS_P1;SDS_P2;PMS_P1;PMS_P2;Temp;Humidity;BMP_temperature;BMP_pressure;BME280_temperature;BME280_humidity;BME280_pressure;Samples;Min_cycle;Max_cycle;Signal;HPM_P1;HPM_P2
2021/09/09 00:00:08;;;;;;;2.95;1.90;;;;;;;;;;4458762;32;20228;-55
2021/09/09 00:02:33;;;;;;;5.22;3.97;;;;;;;;;;4467739;32;20677;-52
2021/09/09 00:04:59;;;;;;;8.70;4.78;;;;;;;;;;4469259;32;20280;-53
2021/09/09 00:07:24;;;;;;;7.40;4.57;;;;;;;;;;4468983;32;20335;-54
2021/09/09 00:09:49;;;;;;;5.07;3.20;;;;;;;;;;4468639;32;20553;-54
2021/09/09 00:12:15;;;;;;;4.68;3.42;;;;;;;;;;4468235;32;20286;-54
2021/09/09 00:14:40;;;;;;;2.30;1.77;;;;;;;;;;4469422;32;20224;-54
2021/09/09 00:17:06;;;;;;;5.72;1.62;;;;;;;;;;4469300;32;20279;-54
2021/09/09 00:19:32;;;;;;;2.10;1.50;;;;;;;;;;4468691;32;20275;-54
2021/09/09 00:21:57;;;;;;;4.43;1.23;;;;;;;;;;4469214;32;20640;-54
2021/09/09 00:24:23;;;;;;;3.95;2.08;;;;;;;;;;4467868;32;20379;-53
2021/09/09 00:26:48;;;;;;;3.25;1.83;;;;;;;;;;4469124;32;20346;-55
2021/09/09 00:29:14;;;;;;;3.25;1.67;;;;;;;;;;4466518;32;20647;-54
2021/09/09 00:31:39;;;;;;;4.90;1.95;;;;;;;;;;4465710;32;20275;-54
2021/09/09 00:34:05;;;;;;;13.25;5.00;;;;;;;;;;4452464;32;20256;-54
2021/09/09 00:36:30;;;;;;;5.65;4.18;;;;;;;;;;4464260;32;20263;-53
2021/09/09 00:38:56;;;;;;;3.03;2.20;;;;;;;;;;4466455;32;20644;-53
2021/09/09 00:41:23;;;;;;;5.12;2.28;;;;;;;;;;4466475;32;20284;-54
2021/09/09 00:43:48;;;;;;;3.97;1.85;;;;;;;;;;4467765;32;20256;-53
2021/09/09 00:46:21;;;;;;;6.75;2.08;;;;;;;;;;4466634;32;20580;-54
2021/09/09 00:48:46;;;;;;;3.20;2.20;;;;;;;;;;4466014;32;20486;-54
2021/09/09 00:51:12;;;;;;;2.67;1.60;;;;;;;;;;4466035;32;20703;-54
2021/09/09 00:53:41;;;;;;;1.80;1.20;;;;;;;;;;4466199;32;20216;-54
2021/09/09 00:56:07;;;;;;;2.53;1.75;;;;;;;;;;4465867;32;20311;-55
2021/09/09 00:58:34;;;;;;;5.65;2.37;;;;;;;;;;4466457;32;20246;-54
2021/09/09 01:00:59;;;;;;;3.10;1.33;;;;;;;;;;4466226;32;20283;-54
2021/09/09 01:03:25;;;;;;;2.08;1.60;;;;;;;;;;4465822;32;20593;-54
2021/09/09 01:05:50;;;;;;;7.37;1.95;;;;;;;;;;4465654;32;20584;-54
2021/09/09 01:08:16;;;;;;;2.90;1.30;;;;;;;;;;4464964;32;20228;-54
2021/09/09 01:10:41;;;;;;;2.87;1.60;;;;;;;;;;4457377;32;20347;-53
2021/09/09 01:13:08;;;;;;;4.20;1.87;;;;;;;;;;4457139;32;20303;-53
2021/09/09 01:15:44;;;;;;;2.75;1.37;;;;;;;;;;4458038;32;20935;-54
2021/09/09 01:18:13;;;;;;;2.40;1.45;;;;;;;;;;4457753;32;20260;-54
2021/09/09 01:20:40;;;;;;;3.87;1.52;;;;;;;;;;4457579;32;20293;-54
2021/09/09 01:23:07;;;;;;;2.70;1.35;;;;;;;;;;4457336;32;20817;-54
2021/09/09 01:25:33;;;;;;;2.80;1.30;;;;;;;;;;4458493;32;20216;-54
2021/09/09 01:27:59;;;;;;;2.28;1.85;;;;;;;;;;4456138;32;20223;-54
2021/09/09 01:30:24;;;;;;;1.87;1.40;;;;;;;;;;4458624;32;20369;-54
2021/09/09 01:32:50;;;;;;;5.05;1.75;;;;;;;;;;4457378;32;20224;-54
2021/09/09 01:35:15;;;;;;;6.85;2.08;;;;;;;;;;4449879;32;20297;-54
2021/09/09 01:37:41;;;;;;;2.70;1.35;;;;;;;;;;4450080;32;20280;-55
2021/09/09 01:40:07;;;;;;;2.65;1.15;;;;;;;;;;4449705;32;20549;-54
2021/09/09 01:42:33;;;;;;;3.08;1.65;;;;;;;;;;4456220;32;20283;-54
2021/09/09 01:44:58;;;;;;;2.65;1.62;;;;;;;;;;4464553;32;20367;-54
2021/09/09 01:47:24;;;;;;;4.87;2.08;;;;;;;;;;4464771;32;20263;-53
2021/09/09 01:49:50;;;;;;;3.67;1.80;;;;;;;;;;4464308;32;20250;-53
2021/09/09 01:52:15;;;;;;;2.10;1.70;;;;;;;;;;4463960;32;20315;-53
2021/09/09 01:54:41;;;;;;;4.90;2.08;;;;;;;;;;4463530;32;20295;-53
2021/09/09 01:57:06;;;;;;;1.92;1.65;;;;;;;;;;4464961;32;20282;-53
2021/09/09 01:59:32;;;;;;;2.95;1.83;;;;;;;;;;4464651;32;20223;-53
2021/09/09 02:01:57;;;;;;;1.70;1.40;;;;;;;;;;4463937;32;20224;-54
2021/09/09 02:04:23;;;;;;;2.78;1.87;;;;;;;;;;4464129;32;20679;-53
2021/09/09 02:06:49;;;;;;;2.80;1.62;;;;;;;;;;4464246;32;20331;-56
2021/09/09 02:09:14;;;;;;;4.18;1.48;;;;;;;;;;4464703;32;20646;-54
2021/09/09 02:11:40;;;;;;;10.60;1.90;;;;;;;;;;4463974;32;20242;-52
2021/09/09 02:14:05;;;;;;;2.65;1.42;;;;;;;;;;4463460;32;20608;-54
2021/09/09 02:16:31;;;;;;;8.80;1.70;;;;;;;;;;4464062;32;20287;-55
2021/09/09 02:18:57;;;;;;;2.03;1.62;;;;;;;;;;4464293;32;20244;-53
2021/09/09 02:21:22;;;;;;;3.78;1.23;;;;;;;;;;4463467;32;20235;-53
2021/09/09 02:23:48;;;;;;;5.20;1.83;;;;;;;;;;4463928;32;20331;-53
2021/09/09 02:26:13;;;;;;;1.98;1.33;;;;;;;;;;4464573;32;20284;-53
2021/09/09 02:28:39;;;;;;;5.32;1.20;;;;;;;;;;4464009;32;20240;-53
2021/09/09 02:31:05;;;;;;;3.30;1.50;;;;;;;;;;4463630;32;20267;-53
2021/09/09 02:33:30;;;;;;;2.55;1.62;;;;;;;;;;4463372;32;20243;-54
2021/09/09 02:35:56;;;;;;;5.07;1.60;;;;;;;;;;4464151;32;20294;-53
2021/09/09 02:38:21;;;;;;;4.28;3.30;;;;;;;;;;4463315;32;20250;-53
2021/09/09 02:40:47;;;;;;;4.22;2.50;;;;;;;;;;4463485;32;20329;-55
2021/09/09 02:43:12;;;;;;;5.47;1.67;;;;;;;;;;4463912;32;20738;-56
2021/09/09 02:45:38;;;;;;;3.65;1.85;;;;;;;;;;4463730;32;20817;-54
2021/09/09 02:48:04;;;;;;;3.72;1.58;;;;;;;;;;4463088;32;20671;-53
2021/09/09 02:50:31;;;;;;;2.12;1.55;;;;;;;;;;4448192;32;20248;-53
2021/09/09 02:52:57;;;;;;;2.72;1.48;;;;;;;;;;4447471;32;20314;-53
2021/09/09 02:55:22;;;;;;;1.73;1.30;;;;;;;;;;4448174;32;20196;-54
2021/09/09 02:57:48;;;;;;;5.15;1.83;;;;;;;;;;4457320;32;20322;-53
2021/09/09 03:00:13;;;;;;;3.65;1.55;;;;;;;;;;4463504;32;20667;-53
2021/09/09 03:02:39;;;;;;;3.53;1.87;;;;;;;;;;4463386;32;20275;-54
2021/09/09 03:05:06;;;;;;;3.62;1.77;;;;;;;;;;4463138;32;20247;-54
2021/09/09 03:07:31;;;;;;;3.78;1.85;;;;;;;;;;4463537;32;20327;-55
2021/09/09 03:09:57;;;;;;;2.17;1.55;;;;;;;;;;4463895;32;20212;-54
2021/09/09 03:12:22;;;;;;;2.72;1.45;;;;;;;;;;4463398;32;20744;-54
2021/09/09 03:14:48;;;;;;;4.78;3.50;;;;;;;;;;4463253;32;20280;-55
2021/09/09 03:17:13;;;;;;;5.75;3.62;;;;;;;;;;4462809;32;20305;-55
2021/09/09 03:19:40;;;;;;;4.45;2.97;;;;;;;;;;4463544;32;20240;-54
2021/09/09 03:22:06;;;;;;;5.62;4.68;;;;;;;;;;4463456;32;20372;-54
2021/09/09 03:24:32;;;;;;;6.00;5.40;;;;;;;;;;4463394;32;20315;-55
2021/09/09 03:26:58;;;;;;;9.82;5.03;;;;;;;;;;4464107;32;20295;-55
2021/09/09 03:29:24;;;;;;;4.22;2.83;;;;;;;;;;4462502;32;20307;-54
2021/09/09 03:31:49;;;;;;;5.53;2.62;;;;;;;;;;4447839;32;20325;-54
2021/09/09 03:34:15;;;;;;;2.30;1.75;;;;;;;;;;4447774;32;20247;-56
2021/09/09 03:36:40;;;;;;;2.55;2.03;;;;;;;;;;4448877;32;20251;-54
2021/09/09 03:39:06;;;;;;;2.12;1.92;;;;;;;;;;4463389;32;20316;-54
2021/09/09 03:41:31;;;;;;;3.17;1.98;;;;;;;;;;4463638;32;20694;-56
2021/09/09 03:43:57;;;;;;;4.85;2.50;;;;;;;;;;4463009;32;20303;-54
2021/09/09 03:46:22;;;;;;;5.85;2.00;;;;;;;;;;4463027;32;20387;-54
2021/09/09 03:48:48;;;;;;;3.20;1.70;;;;;;;;;;4463349;32;20256;-55
2021/09/09 03:51:13;;;;;;;2.83;1.80;;;;;;;;;;4463410;32;20294;-54
2021/09/09 03:53:39;;;;;;;4.35;2.30;;;;;;;;;;4462778;32;20244;-55
2021/09/09 03:56:05;;;;;;;4.87;2.10;;;;;;;;;;4462349;32;20237;-54
2021/09/09 03:58:31;;;;;;;4.95;2.00;;;;;;;;;;4463551;32;20526;-53
2021/09/09 04:00:56;;;;;;;2.65;1.75;;;;;;;;;;4463173;32;20301;-53
2021/09/09 04:03:22;;;;;;;3.60;2.05;;;;;;;;;;4462703;32;20283;-55
2021/09/09 04:05:47;;;;;;;5.25;3.05;;;;;;;;;;4465653;32;20321;-53
2021/09/09 04:08:13;;;;;;;4.12;3.12;;;;;;;;;;4466807;32;20296;-54
2021/09/09 04:10:39;;;;;;;3.33;2.03;;;;;;;;;;4466455;32;20346;-54
2021/09/09 04:13:04;;;;;;;8.52;5.20;;;;;;;;;;4466099;32;20304;-53
2021/09/09 04:15:30;;;;;;;5.78;4.18;;;;;;;;;;4466329;32;20714;-53
2021/09/09 04:17:55;;;;;;;8.68;4.47;;;;;;;;;;4466072;32;20671;-53
2021/09/09 04:20:21;;;;;;;7.32;4.87;;;;;;;;;;4466260;32;20282;-52
2021/09/09 04:22:46;;;;;;;7.40;3.72;;;;;;;;;;4454788;32;20307;-54
2021/09/09 04:25:12;;;;;;;8.35;3.20;;;;;;;;;;4466583;32;20219;-54
2021/09/09 04:27:37;;;;;;;5.32;2.72;;;;;;;;;;4466337;32;20273;-53
2021/09/09 04:30:04;;;;;;;4.03;2.62;;;;;;;;;;4465548;32;20812;-53
2021/09/09 04:32:30;;;;;;;5.50;2.85;;;;;;;;;;4460015;32;20243;-53
2021/09/09 04:34:55;;;;;;;5.25;3.28;;;;;;;;;;4450594;32;20252;-53
2021/09/09 04:37:21;;;;;;;8.38;2.37;;;;;;;;;;4460106;32;20204;-53
2021/09/09 04:39:47;;;;;;;3.45;2.62;;;;;;;;;;4466442;32;20308;-54
2021/09/09 04:42:12;;;;;;;9.20;3.10;;;;;;;;;;4465768;32;20302;-53
2021/09/09 04:44:38;;;;;;;9.77;2.40;;;;;;;;;;4466124;32;20651;-54
2021/09/09 04:47:03;;;;;;;5.20;2.50;;;;;;;;;;4465343;32;20639;-54
2021/09/09 04:49:29;;;;;;;3.33;2.25;;;;;;;;;;4465628;32;20624;-55
2021/09/09 04:51:55;;;;;;;5.70;2.80;;;;;;;;;;4464443;32;20308;-53
2021/09/09 04:54:21;;;;;;;7.15;2.72;;;;;;;;;;4465959;32;20286;-54
2021/09/09 04:56:46;;;;;;;11.38;3.22;;;;;;;;;;4465612;32;20750;-56
2021/09/09 04:59:11;;;;;;;12.07;3.58;;;;;;;;;;4464678;32;20549;-53
2021/09/09 05:01:37;;;;;;;9.45;3.20;;;;;;;;;;4465341;32;20268;-54
2021/09/09 05:04:02;;;;;;;8.95;4.00;;;;;;;;;;4465897;32;20270;-54
2021/09/09 05:06:28;;;;;;;6.28;3.00;;;;;;;;;;4460856;32;20248;-54
2021/09/09 05:08:53;;;;;;;11.90;3.58;;;;;;;;;;4465653;32;20334;-54
2021/09/09 05:11:19;;;;;;;5.80;3.67;;;;;;;;;;4465532;32;20305;-56
2021/09/09 05:13:44;;;;;;;9.32;4.87;;;;;;;;;;4465337;32;20640;-53
2021/09/09 05:16:10;;;;;;;11.55;4.87;;;;;;;;;;4465144;32;20750;-54
2021/09/09 05:18:36;;;;;;;7.45;3.85;;;;;;;;;;4464613;32;20751;-52
2021/09/09 05:21:02;;;;;;;5.25;3.95;;;;;;;;;;4465617;32;20302;-55
2021/09/09 05:23:27;;;;;;;4.97;3.33;;;;;;;;;;4464716;32;20220;-53
2021/09/09 05:25:53;;;;;;;8.95;3.87;;;;;;;;;;4465210;32;20291;-56
2021/09/09 05:28:18;;;;;;;4.05;3.45;;;;;;;;;;4465561;32;20238;-53
2021/09/09 05:30:44;;;;;;;6.35;3.05;;;;;;;;;;4455267;32;20797;-56
2021/09/09 05:33:09;;;;;;;9.48;3.50;;;;;;;;;;4461396;32;20264;-53
2021/09/09 05:35:35;;;;;;;11.23;4.47;;;;;;;;;;4465127;32;20303;-54
2021/09/09 05:38:00;;;;;;;6.62;3.53;;;;;;;;;;4463710;32;20418;-54
2021/09/09 05:40:26;;;;;;;5.30;3.55;;;;;;;;;;4462723;32;20711;-53
2021/09/09 05:42:52;;;;;;;17.70;5.05;;;;;;;;;;4456944;32;20532;-56
2021/09/09 05:45:18;;;;;;;15.95;6.30;;;;;;;;;;4461991;32;20298;-54
2021/09/09 05:47:43;;;;;;;10.77;4.22;;;;;;;;;;4462287;32;20307;-54
2021/09/09 05:50:09;;;;;;;14.77;5.70;;;;;;;;;;4463009;32;20260;-54
2021/09/09 05:52:34;;;;;;;14.25;5.62;;;;;;;;;;4463152;32;20482;-53
2021/09/09 05:55:00;;;;;;;18.77;5.78;;;;;;;;;;4464770;32;20648;-53
2021/09/09 05:57:25;;;;;;;12.32;5.72;;;;;;;;;;4463462;32;20215;-54
2021/09/09 05:59:51;;;;;;;14.57;7.05;;;;;;;;;;4463993;32;20640;-53
2021/09/09 06:02:19;;;;;;;10.75;8.82;;;;;;;;;;4462525;32;20258;-53
2021/09/09 06:04:46;;;;;;;13.70;7.85;;;;;;;;;;4450162;32;20338;-54
2021/09/09 06:07:11;;;;;;;6.97;4.07;;;;;;;;;;4447559;32;20412;-53
2021/09/09 06:09:38;;;;;;;7.70;4.55;;;;;;;;;;4455557;32;20216;-55
2021/09/09 06:12:04;;;;;;;6.35;4.43;;;;;;;;;;4451328;32;20448;-53
2021/09/09 06:14:30;;;;;;;12.88;6.32;;;;;;;;;;4463104;32;20322;-54
2021/09/09 06:16:55;;;;;;;10.13;4.45;;;;;;;;;;4449754;32;20317;-55
2021/09/09 06:19:21;;;;;;;7.43;5.03;;;;;;;;;;4448239;32;20213;-53
2021/09/09 06:21:46;;;;;;;15.93;5.32;;;;;;;;;;4448207;32;20659;-53
2021/09/09 06:24:12;;;;;;;8.20;4.95;;;;;;;;;;4447865;32;20254;-53
2021/09/09 06:26:37;;;;;;;9.52;4.43;;;;;;;;;;4447852;32;20301;-53
2021/09/09 06:29:03;;;;;;;14.20;5.60;;;;;;;;;;4446902;32;20767;-53
2021/09/09 06:31:28;;;;;;;16.87;4.22;;;;;;;;;;4454116;32;20269;-54
2021/09/09 06:33:54;;;;;;;9.43;4.43;;;;;;;;;;4447550;32;20326;-55
2021/09/09 06:36:19;;;;;;;5.70;4.00;;;;;;;;;;4460608;32;21024;-53
2021/09/09 06:38:45;;;;;;;7.90;4.40;;;;;;;;;;4463550;32;20282;-53
2021/09/09 06:41:11;;;;;;;6.85;4.43;;;;;;;;;;4451076;32;20735;-53
2021/09/09 06:43:36;;;;;;;6.50;3.72;;;;;;;;;;4448229;32;20260;-53
2021/09/09 06:46:02;;;;;;;11.12;4.35;;;;;;;;;;4447786;32;20323;-53
2021/09/09 06:48:27;;;;;;;5.30;3.55;;;;;;;;;;4462719;32;20326;-53
2021/09/09 06:50:53;;;;;;;7.15;4.37;;;;;;;;;;4453572;32;20696;-53
2021/09/09 06:53:19;;;;;;;12.65;4.32;;;;;;;;;;4463527;32;20229;-53
2021/09/09 06:55:46;;;;;;;6.07;4.03;;;;;;;;;;4463538;32;20220;-54
2021/09/09 06:58:11;;;;;;;7.62;3.35;;;;;;;;;;4463040;32;20338;-55
2021/09/09 07:00:37;;;;;;;9.15;3.20;;;;;;;;;;4462948;32;20691;-53
2021/09/09 07:03:02;;;;;;;4.78;3.35;;;;;;;;;;4448108;32;20251;-53
2021/09/09 07:05:28;;;;;;;7.10;4.07;;;;;;;;;;4452248;32;20223;-53
2021/09/09 07:07:53;;;;;;;6.68;3.60;;;;;;;;;;4450024;32;20326;-53
2021/09/09 07:10:19;;;;;;;5.75;3.50;;;;;;;;;;4452398;32;20232;-53
2021/09/09 07:12:44;;;;;;;6.15;3.47;;;;;;;;;;4450062;32;20235;-53
2021/09/09 07:15:10;;;;;;;3.75;2.87;;;;;;;;;;4461740;32;20251;-53
2021/09/09 07:17:36;;;;;;;10.45;4.57;;;;;;;;;;4462101;32;20334;-54
2021/09/09 07:20:03;;;;;;;4.05;3.25;;;;;;;;;;4461517;32;20279;-52
2021/09/09 07:22:29;;;;;;;7.78;3.97;;;;;;;;;;4462076;32;20335;-54
2021/09/09 07:24:54;;;;;;;11.30;4.05;;;;;;;;;;4463511;32;20317;-54
2021/09/09 07:27:20;;;;;;;4.18;2.72;;;;;;;;;;4463606;32;20622;-54
2021/09/09 07:29:45;;;;;;;7.70;3.22;;;;;;;;;;4463477;32;20224;-53
2021/09/09 07:32:11;;;;;;;6.03;3.05;;;;;;;;;;4463436;32;20391;-52
2021/09/09 07:34:36;;;;;;;8.45;4.12;;;;;;;;;;4463937;32;20300;-53
2021/09/09 07:37:01;;;;;;;5.25;3.25;;;;;;;;;;4463204;32;20230;-53
2021/09/09 07:39:27;;;;;;;5.78;2.95;;;;;;;;;;4454554;32;20224;-52
2021/09/09 07:41:52;;;;;;;3.35;2.70;;;;;;;;;;4466751;32;20299;-52
2021/09/09 07:44:18;;;;;;;6.22;2.67;;;;;;;;;;4466254;32;20256;-53
2021/09/09 07:46:43;;;;;;;3.95;2.60;;;;;;;;;;4465991;32;20334;-53
2021/09/09 07:49:09;;;;;;;4.65;3.03;;;;;;;;;;4466274;32;20252;-52
2021/09/09 07:51:35;;;;;;;4.43;3.00;;;;;;;;;;4466312;32;20366;-55
2021/09/09 07:54:01;;;;;;;4.97;2.90;;;;;;;;;;4466325;32;20589;-53
2021/09/09 07:56:26;;;;;;;3.33;2.35;;;;;;;;;;4466274;32;20291;-55
2021/09/09 07:58:52;;;;;;;7.50;3.30;;;;;;;;;;4465976;32;20221;-53
2021/09/09 08:01:21;;;;;;;6.00;3.08;;;;;;;;;;4466297;32;20695;-55
2021/09/09 08:03:47;;;;;;;7.97;2.83;;;;;;;;;;4462649;32;20331;-53
2021/09/09 08:06:14;;;;;;;4.20;2.92;;;;;;;;;;4453256;32;20315;-54
2021/09/09 08:08:40;;;;;;;6.78;2.75;;;;;;;;;;4466243;32;20286;-53
2021/09/09 08:11:05;;;;;;;3.00;2.58;;;;;;;;;;4466450;32;20634;-54
2021/09/09 08:13:31;;;;;;;4.37;2.90;;;;;;;;;;4457253;32;20717;-52
2021/09/09 08:15:57;;;;;;;2.22;2.03;;;;;;;;;;4465912;32;20314;-54
2021/09/09 08:18:24;;;;;;;5.80;3.03;;;;;;;;;;4465782;32;20216;-53
2021/09/09 08:20:49;;;;;;;7.75;2.80;;;;;;;;;;4466494;32;20216;-53
2021/09/09 08:23:15;;;;;;;3.62;2.83;;;;;;;;;;4465775;32;20251;-53
2021/09/09 08:25:40;;;;;;;6.50;2.92;;;;;;;;;;4465966;32;20267;-52
2021/09/09 08:28:06;;;;;;;3.62;2.53;;;;;;;;;;4465718;32;20271;-52
2021/09/09 08:30:31;;;;;;;7.22;3.33;;;;;;;;;;4465541;32;20220;-53
2021/09/09 08:32:57;;;;;;;3.95;2.70;;;;;;;;;;4462676;32;20295;-52
2021/09/09 08:35:23;;;;;;;3.80;3.03;;;;;;;;;;4465894;32;20231;-54
2021/09/09 08:37:49;;;;;;;6.35;2.67;;;;;;;;;;4465692;32;20204;-54
2021/09/09 08:40:15;;;;;;;5.35;2.60;;;;;;;;;;4465223;32;20366;-54
2021/09/09 08:42:42;;;;;;;8.45;2.60;;;;;;;;;;4465303;32;20287;-55
2021/09/09 08:45:08;;;;;;;5.97;3.15;;;;;;;;;;4465502;32;20228;-53
2021/09/09 08:47:37;;;;;;;6.20;3.17;;;;;;;;;;4465310;32;20294;-55
2021/09/09 08:50:03;;;;;;;4.55;2.92;;;;;;;;;;4455889;32;20249;-53
2021/09/09 08:52:29;;;;;;;5.37;3.05;;;;;;;;;;4452797;32;20304;-55
2021/09/09 08:54:54;;;;;;;5.07;3.15;;;;;;;;;;4465781;32;20368;-54
2021/09/09 08:57:21;;;;;;;5.18;3.42;;;;;;;;;;4465006;32;20782;-53
2021/09/09 08:59:46;;;;;;;4.87;3.40;;;;;;;;;;4463641;32;20257;-53
2021/09/09 09:02:12;;;;;;;7.40;3.72;;;;;;;;;;4461703;32;20587;-53
2021/09/09 09:04:38;;;;;;;3.70;3.10;;;;;;;;;;4458139;32;20256;-54
2021/09/09 09:07:06;;;;;;;5.50;2.62;;;;;;;;;;4464443;32;20314;-54
2021/09/09 09:09:36;;;;;;;4.45;3.15;;;;;;;;;;4463841;32;20240;-53
2021/09/09 09:12:07;;;;;;;5.10;3.28;;;;;;;;;;4464242;32;20224;-54
2021/09/09 09:14:32;;;;;;;5.12;3.33;;;;;;;;;;4447681;32;20252;-53
2021/09/09 09:17:00;;;;;;;3.87;2.17;;;;;;;;;;4455547;32;20430;-53
2021/09/09 09:19:34;;;;;;;3.60;2.53;;;;;;;;;;4463360;32;20228;-54
2021/09/09 09:22:07;;;;;;;5.43;2.40;;;;;;;;;;4464421;32;20221;-53
2021/09/09 09:24:46;;;;;;;4.45;2.55;;;;;;;;;;4452108;32;20224;-53
2021/09/09 09:27:15;;;;;;;4.25;3.00;;;;;;;;;;4464765;32;20339;-54
2021/09/09 09:29:57;;;;;;;3.50;2.42;;;;;;;;;;4465052;32;20302;-53
2021/09/09 09:32:23;;;;;;;3.95;2.53;;;;;;;;;;4464385;32;20820;-53
2021/09/09 09:34:48;;;;;;;4.15;2.92;;;;;;;;;;4464611;32;20303;-54
2021/09/09 09:37:22;;;;;;;4.50;2.62;;;;;;;;;;4463793;32;20310;-53
2021/09/09 09:39:48;;;;;;;6.07;2.85;;;;;;;;;;4464291;32;20606;-53
2021/09/09 09:42:14;;;;;;;7.07;2.75;;;;;;;;;;4464330;32;20298;-52
2021/09/09 09:44:42;;;;;;;5.22;1.90;;;;;;;;;;4463892;32;20601;-52
2021/09/09 09:47:10;;;;;;;3.10;1.90;;;;;;;;;;4449049;32;20220;-53
2021/09/09 09:49:42;;;;;;;3.40;2.05;;;;;;;;;;4464731;32;20242;-53
2021/09/09 09:52:11;;;;;;;10.02;2.58;;;;;;;;;;4464639;32;20203;-53
2021/09/09 09:54:37;;;;;;;7.62;2.05;;;;;;;;;;4465142;32;20224;-53
2021/09/09 09:57:03;;;;;;;3.42;2.22;;;;;;;;;;4464911;32;20414;-53
2021/09/09 09:59:29;;;;;;;4.57;1.77;;;;;;;;;;4463475;32;20220;-53
2021/09/09 10:01:54;;;;;;;3.00;1.90;;;;;;;;;;4463346;32;20712;-53
2021/09/09 10:04:22;;;;;;;2.47;1.98;;;;;;;;;;4462523;32;20677;-53
2021/09/09 10:06:50;;;;;;;3.95;1.95;;;;;;;;;;4463818;32;20229;-53
2021/09/09 10:09:16;;;;;;;4.53;2.22;;;;;;;;;;4462876;32;20264;-54
2021/09/09 10:11:42;;;;;;;4.50;1.95;;;;;;;;;;4464196;32;20296;-54
2021/09/09 10:14:15;;;;;;;3.70;2.10;;;;;;;;;;4462736;32;20647;-53
2021/09/09 10:16:42;;;;;;;2.30;1.98;;;;;;;;;;4463335;32;20240;-54
2021/09/09 10:19:12;;;;;;;3.58;2.10;;;;;;;;;;4463240;32;20232;-54
2021/09/09 10:21:48;;;;;;;4.05;2.35;;;;;;;;;;4464255;32;20219;-55
2021/09/09 10:24:20;;;;;;;7.62;2.70;;;;;;;;;;4462569;32;20366;-53
2021/09/09 10:26:48;;;;;;;3.22;1.80;;;;;;;;;;4464466;32;20233;-54
2021/09/09 10:29:49;;;;;;;6.37;2.40;;;;;;;;;;4461452;32;20672;-53
2021/09/09 10:32:29;;;;;;;9.77;2.90;;;;;;;;;;4419114;32;20210;-53
2021/09/09 10:35:17;;;;;;;8.15;2.05;;;;;;;;;;4464354;32;20358;-54
2021/09/09 10:37:43;;;;;;;5.53;2.10;;;;;;;;;;4463932;32;20613;-53
2021/09/09 10:40:32;;;;;;;1.92;1.67;;;;;;;;;;4463997;32;20567;-53
2021/09/09 10:43:03;;;;;;;5.07;1.85;;;;;;;;;;4463414;32;20235;-53
2021/09/09 10:45:35;;;;;;;6.65;2.42;;;;;;;;;;4463465;32;20239;-54
2021/09/09 10:48:05;;;;;;;3.08;1.60;;;;;;;;;;4463447;32;21070;-53
2021/09/09 10:50:32;;;;;;;2.42;2.12;;;;;;;;;;4462568;32;20320;-54
2021/09/09 10:53:03;;;;;;;2.97;2.00;;;;;;;;;;4462278;32;20319;-54
2021/09/09 10:55:30;;;;;;;6.72;2.20;;;;;;;;;;4461648;32;20263;-54
2021/09/09 10:58:20;;;;;;;2.97;1.77;;;;;;;;;;4459673;32;20351;-54
2021/09/09 11:00:54;;;;;;;3.58;2.25;;;;;;;;;;4462336;32;20350;-54
2021/09/09 11:03:41;;;;;;;4.07;2.15;;;;;;;;;;4462115;32;20765;-54
2021/09/09 11:06:19;;;;;;;3.15;2.22;;;;;;;;;;4462079;32;20208;-54
2021/09/09 11:08:52;;;;;;;8.15;1.80;;;;;;;;;;4462468;32;20298;-54
2021/09/09 11:11:27;;;;;;;2.40;1.75;;;;;;;;;;4462468;32;20196;-54
2021/09/09 11:13:56;;;;;;;4.60;2.35;;;;;;;;;;4458741;32;20227;-54
2021/09/09 11:16:26;;;;;;;3.42;1.73;;;;;;;;;;4447632;32;20491;-55
2021/09/09 11:18:52;;;;;;;4.30;2.45;;;;;;;;;;4447856;32;20243;-54
2021/09/09 11:21:20;;;;;;;8.52;2.53;;;;;;;;;;4448773;32;20665;-55
2021/09/09 11:23:48;;;;;;;4.60;2.15;;;;;;;;;;4463138;32;20238;-53
2021/09/09 11:26:19;;;;;;;4.80;1.95;;;;;;;;;;4464207;32;20238;-53
2021/09/09 11:28:45;;;;;;;2.92;1.50;;;;;;;;;;4463567;32;20236;-53
2021/09/09 11:31:15;;;;;;;3.22;1.60;;;;;;;;;;4453254;32;20697;-54
2021/09/09 11:34:01;;;;;;;2.85;1.85;;;;;;;;;;4452068;32;20569;-53
2021/09/09 11:36:31;;;;;;;2.20;1.75;;;;;;;;;;4464090;32;20204;-53
2021/09/09 11:38:59;;;;;;;3.83;2.12;;;;;;;;;;4463123;32;20307;-54
2021/09/09 11:41:28;;;;;;;3.22;1.87;;;;;;;;;;4463573;32;20398;-54
2021/09/09 11:44:04;;;;;;;2.53;1.92;;;;;;;;;;4462021;32;20791;-53
2021/09/09 11:46:50;;;;;;;3.17;1.73;;;;;;;;;;4461641;32;20642;-54
2021/09/09 11:49:20;;;;;;;3.22;2.05;;;;;;;;;;4461854;32;20264;-54
2021/09/09 11:51:56;;;;;;;2.37;1.55;;;;;;;;;;4462504;32;20267;-54
2021/09/09 11:54:27;;;;;;;4.37;1.90;;;;;;;;;;4462962;32;20235;-54
2021/09/09 11:57:13;;;;;;;2.67;2.30;;;;;;;;;;4462636;32;20264;-53
2021/09/09 11:59:54;;;;;;;3.47;2.37;;;;;;;;;;4462973;32;20268;-53
2021/09/09 12:02:23;;;;;;;5.18;2.58;;;;;;;;;;4464168;32;20553;-53
2021/09/09 12:04:49;;;;;;;4.70;2.17;;;;;;;;;;4463460;32;20275;-54
2021/09/09 12:07:26;;;;;;;3.53;2.80;;;;;;;;;;4462433;32;20574;-54
2021/09/09 12:10:02;;;;;;;6.53;2.92;;;;;;;;;;4463514;32;20243;-53
2021/09/09 12:12:30;;;;;;;5.10;2.78;;;;;;;;;;4464263;32;20192;-53
2021/09/09 12:14:59;;;;;;;2.65;2.12;;;;;;;;;;4462737;32;20239;-52
2021/09/09 12:17:25;;;;;;;2.50;2.15;;;;;;;;;;4463881;32;20375;-53
2021/09/09 12:19:59;;;;;;;7.07;1.95;;;;;;;;;;4463237;32;20243;-53
2021/09/09 12:22:43;;;;;;;2.85;1.75;;;;;;;;;;4463716;32;20223;-53
2021/09/09 12:25:35;;;;;;;3.25;2.33;;;;;;;;;;4463583;32;20294;-53
2021/09/09 12:28:07;;;;;;;5.65;2.03;;;;;;;;;;4459435;32;20389;-54
2021/09/09 12:30:39;;;;;;;5.00;2.75;;;;;;;;;;4463242;32;20281;-54
2021/09/09 12:33:20;;;;;;;3.67;2.45;;;;;;;;;;4465158;32;20362;-54
2021/09/09 12:36:02;;;;;;;9.00;2.78;;;;;;;;;;4466137;32;20584;-53
2021/09/09 12:38:37;;;;;;;3.95;2.55;;;;;;;;;;4458726;32;20268;-54
2021/09/09 12:41:04;;;;;;;5.00;2.40;;;;;;;;;;4449170;32;20831;-54
2021/09/09 12:43:32;;;;;;;5.03;1.95;;;;;;;;;;4449429;32;20236;-54
2021/09/09 12:46:00;;;;;;;4.30;2.10;;;;;;;;;;4448967;32;20200;-53
2021/09/09 12:48:27;;;;;;;5.55;2.05;;;;;;;;;;4460876;32;20216;-53
2021/09/09 12:50:56;;;;;;;9.10;2.20;;;;;;;;;;4465970;32;20652;-53
2021/09/09 12:53:23;;;;;;;5.65;1.90;;;;;;;;;;4450525;32;20236;-53
2021/09/09 12:55:48;;;;;;;7.18;2.10;;;;;;;;;;4453172;32;20212;-52
2021/09/09 12:58:15;;;;;;;2.83;1.75;;;;;;;;;;4466112;32;20239;-53
2021/09/09 13:00:41;;;;;;;5.80;1.55;;;;;;;;;;4466039;32;20275;-53
2021/09/09 13:03:06;;;;;;;2.53;1.30;;;;;;;;;;4465977;32;20242;-53
2021/09/09 13:05:32;;;;;;;4.60;1.85;;;;;;;;;;4466104;32;20538;-53
2021/09/09 13:07:57;;;;;;;5.25;1.75;;;;;;;;;;4457539;32;20240;-53
2021/09/09 13:10:23;;;;;;;5.50;2.37;;;;;;;;;;4465467;32;20254;-54
2021/09/09 13:12:48;;;;;;;3.05;1.90;;;;;;;;;;4465841;32;20283;-53
2021/09/09 13:15:14;;;;;;;2.90;1.50;;;;;;;;;;4459326;32;20353;-54
2021/09/09 13:17:39;;;;;;;3.62;1.98;;;;;;;;;;4464933;32;20258;-53
2021/09/09 13:20:06;;;;;;;4.70;2.70;;;;;;;;;;4464989;32;20247;-53
2021/09/09 13:22:31;;;;;;;2.25;1.48;;;;;;;;;;4465385;32;20388;-55
2021/09/09 13:24:56;;;;;;;4.35;2.42;;;;;;;;;;4465444;32;20224;-53
2021/09/09 13:27:22;;;;;;;5.85;2.17;;;;;;;;;;4465704;32;20571;-53
2021/09/09 13:29:48;;;;;;;4.37;1.80;;;;;;;;;;4464846;32;20216;-53
2021/09/09 13:32:14;;;;;;;3.85;1.95;;;;;;;;;;4460137;32;20609;-55
2021/09/09 13:34:39;;;;;;;3.60;1.65;;;;;;;;;;4460605;32;20300;-53
2021/09/09 13:37:05;;;;;;;9.35;1.95;;;;;;;;;;4464459;32;20773;-53
2021/09/09 13:39:30;;;;;;;3.53;1.70;;;;;;;;;;4465372;32;20680;-53
2021/09/09 13:41:56;;;;;;;3.12;1.65;;;;;;;;;;4465253;32;20278;-54
2021/09/09 13:44:21;;;;;;;8.48;2.05;;;;;;;;;;4465458;32;20271;-54
2021/09/09 13:46:47;;;;;;;2.90;1.50;;;;;;;;;;4465469;32;20291;-54
2021/09/09 13:49:12;;;;;;;4.25;1.65;;;;;;;;;;4465151;32;20220;-54
2021/09/09 13:51:38;;;;;;;6.60;1.65;;;;;;;;;;4465826;32;20365;-53
2021/09/09 13:54:03;;;;;;;7.65;2.28;;;;;;;;;;4465271;32;20367;-54
2021/09/09 13:56:29;;;;;;;3.22;1.65;;;;;;;;;;4465411;32;20275;-54
2021/09/09 13:58:54;;;;;;;9.77;1.98;;;;;;;;;;4463892;32;20302;-54
2021/09/09 14:01:19;;;;;;;9.40;2.85;;;;;;;;;;4464653;32;20223;-54
2021/09/09 14:03:45;;;;;;;8.40;2.15;;;;;;;;;;4455167;32;20260;-53
2021/09/09 14:06:10;;;;;;;6.18;3.08;;;;;;;;;;4465019;32;20377;-55
2021/09/09 14:08:36;;;;;;;12.25;2.62;;;;;;;;;;4464749;32;20253;-54
2021/09/09 14:11:01;;;;;;;6.78;2.55;;;;;;;;;;4464802;32;20276;-53
2021/09/09 14:13:27;;;;;;;5.85;2.50;;;;;;;;;;4464076;32;20293;-53
2021/09/09 14:15:52;;;;;;;5.18;2.60;;;;;;;;;;4463712;32;20236;-54
2021/09/09 14:18:18;;;;;;;6.78;2.87;;;;;;;;;;4463634;32;20631;-53
2021/09/09 14:20:46;;;;;;;12.07;2.37;;;;;;;;;;4462940;32;20311;-54
2021/09/09 14:23:11;;;;;;;5.90;2.30;;;;;;;;;;4463052;32;20468;-54
2021/09/09 14:25:37;;;;;;;4.20;2.05;;;;;;;;;;4463312;32;20339;-54
2021/09/09 14:28:03;;;;;;;10.50;2.40;;;;;;;;;;4455577;32;20582;-55
2021/09/09 14:30:28;;;;;;;7.45;2.33;;;;;;;;;;4446819;32;20557;-54
2021/09/09 14:32:54;;;;;;;9.82;1.67;;;;;;;;;;4454861;32;20388;-53
2021/09/09 14:35:19;;;;;;;7.93;2.45;;;;;;;;;;4463535;32;20308;-53
2021/09/09 14:37:45;;;;;;;7.47;2.53;;;;;;;;;;4463126;32;20280;-53
2021/09/09 14:40:11;;;;;;;9.55;2.92;;;;;;;;;;4462764;32;20258;-53
2021/09/09 14:42:36;;;;;;;3.87;2.08;;;;;;;;;;4459943;32;20327;-55